Toa Alta, Puerto Rico

5:47 PM AST on February 11, 2016 (GMT -0400)
Rio Hondo 2 | | Change Station
CLOSE
Current Station
Personal Weather Station
Location: Bayamón, BAYAMóN
Elevation: 30 ft
Nearby Weather Stations

Elev 30 ft 18.42 °N, 66.17 °W | Updated 13 minutes ago

Scattered Clouds
Scattered Clouds
81.7 °F
Feels Like 86 °F
N
3.2
Wind Variable Wind from ESE

Today
High -- | Low -- °F
--% Chance of Precip.
Yesterday
High -- | Low -- °F
Precip. -- in
Pressure 30.04 in
Visibility 10.0 miles
Clouds Few 2300 ft
Scattered Clouds 4000 ft
Heat Index 86 °F
Dew Point 71 °F
Humidity 71%
Rainfall 0.00 in
Snow Depth Not available.
6:54 AM 6:23 PM
Waxing Crescent, 14% visible
METAR TJSJ 112056Z 08014KT 10SM FEW023 SCT040 27/21 A3005 RMK AO2 SLP173 T02720211 53001
Pressure 30.04 in
Visibility 10.0 miles
Clouds Few 2300 ft
Scattered Clouds 4000 ft
Heat Index 86 °F
Dew Point 71 °F
Humidity 71%
Rainfall 0.00 in
Snow Depth Not available.
6:54 AM 6:23 PM
Waxing Crescent, 14% visible
METAR TJSJ 112056Z 08014KT 10SM FEW023 SCT040 27/21 A3005 RMK AO2 SLP173 T02720211 53001

10-Day Weather Forecast

Almanac

Astronomy

Feb. 11, 2016 Rise Set
Actual Time
Civil Twilight
Nautical Twilight
Astronomical Twilight
Moon
Length of Visible Light
Length of Day
Tomorrow will be .
, % of the Moon is Illuminated

Today's Extremes

Country Highs Country Lows

Community

WunderPhotos

Upload Photos

1,892,165 photos uploaded!

WunderBlog® & News

Nearby

Air Quality

  Air Quality AQ Index Pollutant
Not available.

Snow Depth

Station Depth Elevation

Earthquake Activity

City Distance Mag. Time & Date
Minimum magnitude displayed is 2.5.

Coastal Water Temperatures

Place Temperature

Stations

Nearby Weather Stations

Station Location Temp. Windchill Dew Point Humidity Wind Precip. Elev Updated Type